Time;durP1;ratioP1;P1;durP2;ratioP2;P2;SDS_P1;SDS_P2;PMS_P1;PMS_P2;Temp;Humidity;BMP_temperature;BMP_pressure;BME280_temperature;BME280_humidity;BME280_pressure;Samples;Min_cycle;Max_cycle;Signal;HPM_P1;HPM_P2
2023/10/25 00:01:23;;;;;;;1999.90;999.90;;;;;;;10.88;100.00;93455.56;5011223;28;20182;-56
2023/10/25 00:03:48;;;;;;;1999.90;999.90;;;;;;;10.87;100.00;93451.31;5011746;28;20189;-56
2023/10/25 00:06:13;;;;;;;1999.90;999.90;;;;;;;10.86;100.00;93449.81;5011616;28;20190;-55
2023/10/25 00:08:39;;;;;;;1999.90;999.90;;;;;;;10.89;100.00;93455.13;5011229;28;20188;-56
2023/10/25 00:11:06;;;;;;;1999.90;999.90;;;;;;;10.87;100.00;93456.78;5011828;28;20177;-53
2023/10/25 00:13:32;;;;;;;1999.90;999.90;;;;;;;10.87;100.00;93462.25;5011291;28;20178;-55
2023/10/25 00:15:57;;;;;;;1999.90;999.90;;;;;;;10.91;100.00;93465.59;5010970;28;20201;-53
2023/10/25 00:18:24;;;;;;;1999.90;999.90;;;;;;;10.87;100.00;93467.72;5010966;28;20206;-55
2023/10/25 00:20:50;;;;;;;1999.90;999.90;;;;;;;10.84;100.00;93468.59;5010972;28;20182;-54
2023/10/25 00:23:15;;;;;;;1999.90;999.90;;;;;;;10.82;100.00;93487.44;5010925;28;20180;-55
2023/10/25 00:25:41;;;;;;;1999.90;999.90;;;;;;;10.81;100.00;93470.28;5010641;28;20368;-55
2023/10/25 00:28:06;;;;;;;1999.90;999.90;;;;;;;10.79;100.00;93482.88;5010705;28;20200;-54
2023/10/25 00:30:32;;;;;;;1999.90;999.90;;;;;;;10.79;100.00;93480.91;5010669;28;20183;-54
2023/10/25 00:32:57;;;;;;;1999.90;999.90;;;;;;;10.78;100.00;93481.34;5011501;28;20181;-55
2023/10/25 00:35:22;;;;;;;1999.90;999.90;;;;;;;10.75;100.00;93488.47;5010509;28;20209;-55
2023/10/25 00:37:48;;;;;;;1999.90;999.90;;;;;;;10.75;100.00;93495.91;5010785;28;20410;-53
2023/10/25 00:40:13;;;;;;;1999.90;999.90;;;;;;;10.74;100.00;93491.66;5010394;28;20289;-54
2023/10/25 00:42:38;;;;;;;1999.90;999.90;;;;;;;10.75;100.00;93498.63;5011004;28;20395;-54
2023/10/25 00:45:04;;;;;;;1999.90;999.90;;;;;;;10.76;100.00;93500.91;5010940;28;20201;-53
2023/10/25 00:47:30;;;;;;;1999.90;999.90;;;;;;;10.74;100.00;93502.56;5010689;28;20191;-54
2023/10/25 00:49:55;;;;;;;1999.90;999.90;;;;;;;10.75;100.00;93509.53;5010158;28;20247;-55
2023/10/25 00:52:20;;;;;;;1999.90;999.90;;;;;;;10.73;100.00;93507.25;5010819;28;20177;-51
2023/10/25 00:54:46;;;;;;;1999.90;999.90;;;;;;;10.72;100.00;93515.91;5010326;28;20182;-55
2023/10/25 00:57:14;;;;;;;1999.90;999.90;;;;;;;10.67;100.00;93513.78;5010713;28;20178;-50
2023/10/25 00:59:40;;;;;;;1999.90;999.90;;;;;;;10.67;100.00;93519.97;5010238;28;20182;-55
2023/10/25 01:02:05;;;;;;;1999.90;999.90;;;;;;;10.70;100.00;93512.88;5010353;28;20203;-54
2023/10/25 01:04:31;;;;;;;1999.90;999.90;;;;;;;10.66;100.00;93513.00;5010248;28;20212;-55
2023/10/25 01:06:56;;;;;;;1999.90;999.90;;;;;;;10.63;100.00;93513.16;5010325;28;20179;-55
2023/10/25 01:09:22;;;;;;;1999.90;999.90;;;;;;;10.60;100.00;93509.31;5009792;28;20178;-54
2023/10/25 01:11:48;;;;;;;1999.90;999.90;;;;;;;10.57;100.00;93512.22;5010458;28;20177;-56
2023/10/25 01:14:13;;;;;;;1999.90;999.90;;;;;;;10.53;100.00;93515.09;5009802;28;20178;-56
2023/10/25 01:16:38;;;;;;;1999.90;999.90;;;;;;;10.44;100.00;93512.28;5009905;28;20208;-57
2023/10/25 01:19:03;;;;;;;1999.90;999.90;;;;;;;10.41;100.00;93512.44;5010383;28;20200;-56
2023/10/25 01:21:29;;;;;;;1999.90;999.90;;;;;;;10.36;100.00;93515.75;5010280;28;20179;-55
2023/10/25 01:23:54;;;;;;;1999.90;999.90;;;;;;;10.27;100.00;93523.88;5010251;28;20177;-56
2023/10/25 01:26:20;;;;;;;1999.90;999.90;;;;;;;10.23;100.00;93523.25;5010222;28;20189;-56
2023/10/25 01:28:45;;;;;;;1999.90;999.90;;;;;;;10.22;100.00;93527.94;5010163;28;20198;-56
2023/10/25 01:31:10;;;;;;;1999.90;999.90;;;;;;;10.20;100.00;93518.69;5009864;28;20177;-57
2023/10/25 01:33:36;;;;;;;1999.90;999.90;;;;;;;10.16;100.00;93518.06;5009568;28;20182;-54
2023/10/25 01:36:01;;;;;;;1999.90;999.90;;;;;;;10.13;100.00;93514.28;5009561;28;20174;-55
2023/10/25 01:38:27;;;;;;;1999.90;999.90;;;;;;;10.13;100.00;93515.00;5009360;28;20218;-52
2023/10/25 01:40:52;;;;;;;1999.90;999.90;;;;;;;10.13;100.00;93514.28;5009213;28;20232;-56
2023/10/25 01:43:17;;;;;;;1999.90;999.90;;;;;;;10.13;100.00;93527.13;5009450;28;20181;-54
2023/10/25 01:45:42;;;;;;;1999.90;999.90;;;;;;;10.06;100.00;93526.19;5009391;28;20175;-56
2023/10/25 01:48:08;;;;;;;1999.90;999.90;;;;;;;10.05;100.00;93521.94;5009286;28;20188;-56
2023/10/25 01:50:34;;;;;;;1999.90;999.90;;;;;;;10.01;100.00;93532.19;5009013;28;20204;-55
2023/10/25 01:52:59;;;;;;;1999.90;999.90;;;;;;;9.99;100.00;93526.41;5009724;28;20179;-54
2023/10/25 01:55:25;;;;;;;1999.90;999.90;;;;;;;9.92;100.00;93532.13;5009379;28;20180;-52
2023/10/25 01:57:50;;;;;;;1999.90;999.90;;;;;;;9.90;100.00;93528.31;5009134;28;20239;-53
2023/10/25 02:00:16;;;;;;;1999.90;999.90;;;;;;;9.87;100.00;93529.97;5009546;28;20178;-50
2023/10/25 02:02:41;;;;;;;1999.90;999.90;;;;;;;9.87;100.00;93524.53;5009090;28;20184;-52
2023/10/25 02:05:07;;;;;;;1999.90;999.90;;;;;;;9.82;100.00;93519.66;5009474;28;20179;-56
2023/10/25 02:07:32;;;;;;;1999.90;999.90;;;;;;;9.83;100.00;93523.88;5008803;28;20176;-54
2023/10/25 02:09:58;;;;;;;1999.90;999.90;;;;;;;9.83;100.00;93529.34;5008636;28;20189;-54
2023/10/25 02:12:23;;;;;;;1999.90;999.90;;;;;;;9.83;100.00;93518.44;5008912;28;20184;-53
2023/10/25 02:14:48;;;;;;;1999.90;999.90;;;;;;;9.82;100.00;93516.91;5008106;28;20273;-56
2023/10/25 02:17:14;;;;;;;1999.90;999.90;;;;;;;9.83;100.00;93515.72;5008992;28;20368;-54
2023/10/25 02:19:40;;;;;;;1999.90;999.90;;;;;;;9.86;100.00;93514.06;5009262;28;20203;-53
2023/10/25 02:22:05;;;;;;;1999.90;999.90;;;;;;;9.83;100.00;93518.44;5008678;28;20173;-56
2023/10/25 02:24:31;;;;;;;1999.90;999.90;;;;;;;9.78;100.00;93531.88;5009115;28;20178;-55
2023/10/25 02:26:56;;;;;;;1999.90;999.90;;;;;;;9.77;100.00;93561.09;5008639;28;20177;-55
2023/10/25 02:29:22;;;;;;;1999.90;999.90;;;;;;;9.74;100.00;93555.78;5009199;28;20180;-54
2023/10/25 02:31:47;;;;;;;1999.90;999.90;;;;;;;9.72;100.00;93558.94;5008524;28;20177;-56
2023/10/25 02:34:12;;;;;;;1999.90;999.90;;;;;;;9.71;100.00;93565.59;5008899;28;20184;-56
2023/10/25 02:36:38;;;;;;;1999.90;999.90;;;;;;;9.71;100.00;93560.16;5009263;28;20194;-55
2023/10/25 02:39:03;;;;;;;1999.90;999.90;;;;;;;9.71;100.00;93551.97;5008234;28;20289;-54
2023/10/25 02:41:29;;;;;;;1999.90;999.90;;;;;;;9.66;100.00;93562.69;5008388;28;20423;-53
2023/10/25 02:43:56;;;;;;;1999.90;999.90;;;;;;;9.61;100.00;93572.16;5008234;28;20183;-53
2023/10/25 02:46:21;;;;;;;1999.90;999.90;;;;;;;9.59;100.00;93577.28;5008173;28;20180;-54
2023/10/25 02:48:46;;;;;;;1999.90;999.90;;;;;;;9.56;100.00;93586.38;5008738;28;20184;-55
2023/10/25 02:51:12;;;;;;;1999.90;999.90;;;;;;;9.54;100.00;93577.84;5008401;28;20189;-54
2023/10/25 02:53:37;;;;;;;1999.90;999.90;;;;;;;9.53;100.00;93581.78;5008088;28;20176;-53
2023/10/25 02:56:05;;;;;;;1999.90;999.90;;;;;;;9.52;100.00;93587.69;5008088;28;20213;-54
2023/10/25 02:58:30;;;;;;;1999.90;999.90;;;;;;;9.48;100.00;93595.94;5007858;28;20235;-55
2023/10/25 03:00:56;;;;;;;1999.90;999.90;;;;;;;9.47;100.00;93591.72;5008018;28;20176;-55
2023/10/25 03:03:23;;;;;;;1999.90;999.90;;;;;;;9.46;100.00;93592.91;5007896;28;20189;-55
2023/10/25 03:05:48;;;;;;;1999.90;999.90;;;;;;;9.45;100.00;93604.25;5008000;28;20182;-52
2023/10/25 03:08:14;;;;;;;1999.90;999.90;;;;;;;9.44;100.00;93603.47;5007873;28;20256;-56
2023/10/25 03:10:39;;;;;;;1999.90;999.90;;;;;;;9.44;100.00;93600.00;5007876;28;20177;-56
2023/10/25 03:13:04;;;;;;;1999.90;999.90;;;;;;;9.41;100.00;93590.75;5007902;28;20374;-55
2023/10/25 03:15:30;;;;;;;1999.90;999.90;;;;;;;9.34;100.00;93588.28;5008343;28;20185;-52
2023/10/25 03:17:55;;;;;;;1999.90;999.90;;;;;;;9.30;100.00;93590.34;5007627;28;20235;-54
2023/10/25 03:20:20;;;;;;;1999.90;999.90;;;;;;;9.26;100.00;93589.69;5007762;28;20233;-54
2023/10/25 03:22:46;;;;;;;1999.90;999.90;;;;;;;9.22;100.00;93583.59;5007775;28;20204;-53
2023/10/25 03:25:11;;;;;;;1999.90;999.90;;;;;;;9.17;100.00;93586.88;5007582;28;20175;-55
2023/10/25 03:27:37;;;;;;;1999.90;999.90;;;;;;;9.14;100.00;93579.56;5007684;28;20185;-55
2023/10/25 03:30:03;;;;;;;1999.90;999.90;;;;;;;9.13;100.00;93588.94;5008427;28;20211;-53
2023/10/25 03:32:28;;;;;;;1999.90;999.90;;;;;;;9.15;100.00;93589.25;5007669;28;20527;-56
2023/10/25 03:34:54;;;;;;;1999.90;999.90;;;;;;;9.13;100.00;93583.50;5007600;28;20175;-54
2023/10/25 03:37:19;;;;;;;1999.90;999.90;;;;;;;9.10;100.00;93592.53;5007520;28;20195;-56
2023/10/25 03:39:44;;;;;;;1999.90;999.90;;;;;;;9.09;100.00;93591.03;5007389;28;20457;-54
2023/10/25 03:42:10;;;;;;;1999.90;999.90;;;;;;;9.07;100.00;93596.13;5007813;28;20341;-56
2023/10/25 03:44:35;;;;;;;1999.90;999.90;;;;;;;9.03;100.00;93587.31;5007442;28;20189;-54
2023/10/25 03:47:00;;;;;;;1999.90;999.90;;;;;;;9.02;100.00;93591.25;5007435;28;20171;-57
2023/10/25 03:49:26;;;;;;;1999.90;999.90;;;;;;;9.02;100.00;93593.19;5007521;28;20179;-55
2023/10/25 03:51:52;;;;;;;1999.90;999.90;;;;;;;9.03;100.00;93597.47;5007971;28;20176;-56
2023/10/25 03:54:17;;;;;;;1999.90;999.90;;;;;;;9.02;100.00;93593.19;5007326;28;20179;-56
2023/10/25 03:56:42;;;;;;;1999.90;999.90;;;;;;;9.01;100.00;93600.63;5007335;28;20171;-55
2023/10/25 03:59:11;;;;;;;1999.90;999.90;;;;;;;9.01;100.00;93597.13;5007133;28;20199;-56
2023/10/25 04:01:37;;;;;;;1999.90;999.90;;;;;;;9.00;100.00;93595.63;5007558;28;20167;-52
2023/10/25 04:04:03;;;;;;;1999.90;999.90;;;;;;;8.97;100.00;93594.53;5007892;28;20164;-54
2023/10/25 04:06:29;;;;;;;1999.90;999.90;;;;;;;8.97;100.00;93599.97;5007299;28;20168;-55
2023/10/25 04:08:54;;;;;;;1999.90;999.90;;;;;;;8.95;100.00;93590.69;5007751;28;20238;-53
2023/10/25 04:11:19;;;;;;;1999.90;999.90;;;;;;;8.94;100.00;93584.50;5007719;28;20178;-53
2023/10/25 04:13:45;;;;;;;1999.90;999.90;;;;;;;8.91;100.00;93579.94;5007527;28;20168;-54
2023/10/25 04:16:10;;;;;;;1999.90;999.90;;;;;;;8.94;100.00;93583.75;5007102;28;20187;-54
2023/10/25 04:18:36;;;;;;;1999.90;999.90;;;;;;;8.89;100.00;93585.03;5007539;28;20363;-54
2023/10/25 04:21:08;;;;;;;1999.90;999.90;;;;;;;8.90;100.00;93589.31;5006967;28;20238;-55
2023/10/25 04:23:33;;;;;;;1999.90;999.90;;;;;;;8.90;100.00;93589.31;5007459;28;20190;-56
2023/10/25 04:26:09;;;;;;;1999.90;999.90;;;;;;;8.87;100.00;93590.19;5007074;28;20168;-54
2023/10/25 04:28:36;;;;;;;1999.90;999.90;;;;;;;8.84;100.00;93593.78;5007048;28;20171;-56
2023/10/25 04:31:01;;;;;;;1999.90;999.90;;;;;;;8.82;100.00;93604.31;5007509;28;20251;-57
2023/10/25 04:33:27;;;;;;;1999.90;999.90;;;;;;;8.82;100.00;93592.69;5007176;28;20171;-55
2023/10/25 04:35:53;;;;;;;1999.90;999.90;;;;;;;8.80;100.00;93584.94;5006993;28;20172;-55
2023/10/25 04:38:18;;;;;;;1999.90;999.90;;;;;;;8.79;100.00;93583.44;5010324;28;20202;-53
2023/10/25 04:40:44;;;;;;;1999.90;999.90;;;;;;;8.77;100.00;93580.38;5010386;28;20219;-53
2023/10/25 04:43:09;;;;;;;1999.90;999.90;;;;;;;8.73;100.00;93574.28;5010392;28;20194;-53
2023/10/25 04:45:35;;;;;;;1999.90;999.90;;;;;;;8.73;100.00;93568.84;5010132;28;20176;-54
2023/10/25 04:48:00;;;;;;;1999.90;999.90;;;;;;;8.70;100.00;93569.72;5010295;28;20246;-56
2023/10/25 04:50:26;;;;;;;1999.90;999.90;;;;;;;8.69;100.00;93560.03;5010502;28;20175;-55
2023/10/25 04:52:51;;;;;;;1999.90;999.90;;;;;;;8.67;100.00;93565.13;5010311;28;20199;-53
2023/10/25 04:55:17;;;;;;;1999.90;999.90;;;;;;;8.67;100.00;93565.13;5010269;28;20226;-52
2023/10/25 04:57:42;;;;;;;1999.90;999.90;;;;;;;8.67;100.00;93567.09;5010093;28;20203;-54
2023/10/25 05:00:09;;;;;;;1999.90;999.90;;;;;;;8.69;100.00;93567.41;5010175;28;20183;-57
2023/10/25 05:02:36;;;;;;;1999.90;999.90;;;;;;;8.66;100.00;93620.75;5010055;28;20173;-55
2023/10/25 05:05:01;;;;;;;1999.90;999.90;;;;;;;8.65;100.00;93621.19;5010570;28;20176;-54
2023/10/25 05:07:27;;;;;;;1999.90;999.90;;;;;;;8.62;100.00;93616.59;5010316;28;20175;-56
2023/10/25 05:09:53;;;;;;;1999.90;999.90;;;;;;;8.61;100.00;93615.84;5009878;28;20182;-55
2023/10/25 05:12:27;;;;;;;1999.90;999.90;;;;;;;8.56;100.00;93610.94;5010559;28;20194;-55
2023/10/25 05:14:53;;;;;;;1999.90;999.90;;;;;;;8.57;100.00;93615.19;5009535;28;20175;-55
2023/10/25 05:17:18;;;;;;;1999.90;999.90;;;;;;;8.55;100.00;93616.81;5009674;28;20243;-54
2023/10/25 05:19:44;;;;;;;1999.90;999.90;;;;;;;8.53;100.00;93616.50;5009618;28;20198;-55
2023/10/25 05:22:11;;;;;;;1999.90;999.90;;;;;;;8.51;100.00;93616.94;5009564;28;20170;-56
2023/10/25 05:24:37;;;;;;;1999.90;999.90;;;;;;;8.52;100.00;93623.88;5009704;28;20171;-53
2023/10/25 05:27:02;;;;;;;1999.90;999.90;;;;;;;8.48;100.00;93612.34;5010039;28;20171;-58
2023/10/25 05:29:28;;;;;;;1999.90;999.90;;;;;;;8.46;100.00;93614.75;5010054;28;20171;-54
2023/10/25 05:31:55;;;;;;;1999.90;999.90;;;;;;;8.42;100.00;93608.63;5009515;28;20167;-55
2023/10/25 05:34:21;;;;;;;1999.90;999.90;;;;;;;8.43;100.00;93612.91;5009298;28;20179;-55
2023/10/25 05:36:47;;;;;;;1999.90;999.90;;;;;;;8.41;100.00;93618.00;5009216;28;20194;-55
2023/10/25 05:39:13;;;;;;;1999.90;999.90;;;;;;;8.41;100.00;93607.13;5008968;28;20281;-54
2023/10/25 05:41:40;;;;;;;1999.90;999.90;;;;;;;8.40;100.00;93610.25;5009125;28;20251;-54
2023/10/25 05:44:15;;;;;;;1999.90;999.90;;;;;;;8.39;100.00;93600.59;5009372;28;20214;-55
2023/10/25 05:46:41;;;;;;;1999.90;999.90;;;;;;;8.40;100.00;93607.53;5009506;28;20208;-55
2023/10/25 05:49:08;;;;;;;1999.90;999.90;;;;;;;8.43;100.00;93601.25;5008018;28;20179;-55
2023/10/25 05:51:34;;;;;;;1999.90;999.90;;;;;;;8.40;100.00;93600.16;5008622;28;20175;-54
2023/10/25 05:54:00;;;;;;;1999.90;999.90;;;;;;;8.40;100.00;93602.88;5009256;28;20179;-55
2023/10/25 05:56:29;;;;;;;1999.90;999.90;;;;;;;8.42;100.00;93607.88;5009436;28;20352;-56
2023/10/25 05:58:55;;;;;;;1999.90;999.90;;;;;;;8.41;100.00;93612.56;5009022;28;20207;-55
2023/10/25 06:01:37;;;;;;;1999.90;999.90;;;;;;;8.42;100.00;93607.88;5008652;28;20172;-57
2023/10/25 06:04:04;;;;;;;1999.90;999.90;;;;;;;8.45;100.00;93610.50;5008606;28;20206;-54
2023/10/25 06:06:30;;;;;;;1999.90;999.90;;;;;;;8.79;100.00;93610.66;5008729;28;20202;-55
2023/10/25 06:08:55;;;;;;;1999.90;999.90;;;;;;;9.68;100.00;93606.59;5008976;28;20171;-53
2023/10/25 06:11:21;;;;;;;1999.90;999.90;;;;;;;9.88;100.00;93602.38;5009028;28;20242;-55
2023/10/25 06:13:47;;;;;;;1999.90;999.90;;;;;;;10.31;100.00;93590.75;5009197;28;20228;-55
2023/10/25 06:16:13;;;;;;;1999.90;999.90;;;;;;;10.68;100.00;93592.47;5008971;28;20183;-55
2023/10/25 06:18:38;;;;;;;1999.90;999.90;;;;;;;11.11;100.00;93592.34;5009214;28;20206;-56
2023/10/25 06:21:04;;;;;;;1999.90;999.90;;;;;;;12.00;100.00;93590.25;5008940;28;20261;-56
2023/10/25 06:23:29;;;;;;;1999.90;999.90;;;;;;;12.23;100.00;93592.38;5009005;28;20175;-55
2023/10/25 06:25:54;;;;;;;1999.90;999.90;;;;;;;12.35;100.00;93605.16;5009093;28;20360;-57
2023/10/25 06:28:20;;;;;;;1999.90;999.90;;;;;;;12.48;100.00;93600.25;5008847;28;20183;-54
2023/10/25 06:30:45;;;;;;;1999.90;999.90;;;;;;;12.74;100.00;93599.44;5008304;28;20183;-55
2023/10/25 06:33:11;;;;;;;1999.90;999.90;;;;;;;12.86;100.00;93603.22;5008766;28;20247;-57
2023/10/25 06:35:36;;;;;;;1999.90;999.90;;;;;;;12.09;100.00;93612.16;5008146;28;20183;-56
2023/10/25 06:38:02;;;;;;;1999.90;999.90;;;;;;;12.05;100.00;93611.53;5008055;28;20309;-55
2023/10/25 06:40:27;;;;;;;1999.90;999.90;;;;;;;12.30;100.00;93611.22;5008077;28;20231;-55
2023/10/25 06:42:53;;;;;;;1999.90;999.90;;;;;;;12.77;100.00;93622.41;5008063;28;20190;-55
2023/10/25 06:45:19;;;;;;;1999.90;999.90;;;;;;;13.15;100.00;93622.66;5007929;28;20187;-53
2023/10/25 06:47:45;;;;;;;1999.90;999.90;;;;;;;14.24;100.00;93620.78;5008318;28;20207;-51
2023/10/25 06:50:11;;;;;;;1999.90;999.90;;;;;;;14.98;100.00;93623.19;5008136;28;20174;-57
2023/10/25 06:52:37;;;;;;;1999.90;999.90;;;;;;;15.35;100.00;93572.03;5007764;28;20218;-52
2023/10/25 06:55:03;;;;;;;1999.90;999.90;;;;;;;15.47;100.00;93416.91;5007990;28;20174;-59
2023/10/25 06:57:29;;;;;;;1999.90;999.90;;;;;;;16.31;100.00;93150.03;5007786;28;20302;-55
2023/10/25 06:59:55;;;;;;;1999.90;999.90;;;;;;;16.81;100.00;93056.50;5008436;28;20296;-54
2023/10/25 07:02:43;;;;;;;1999.90;999.90;;;;;;;17.11;100.00;93147.81;5007875;28;20179;-56
2023/10/25 07:05:13;;;;;;;1999.90;999.90;;;;;;;17.62;100.00;93263.25;5008591;28;20179;-53
2023/10/25 07:07:40;;;;;;;1999.90;999.90;;;;;;;17.67;100.00;93381.25;5007652;28;20180;-53
2023/10/25 07:10:08;;;;;;;1999.90;999.90;;;;;;;17.98;100.00;93488.78;5007758;28;20245;-53
2023/10/25 07:12:33;;;;;;;1999.90;999.90;;;;;;;17.91;100.00;93608.03;5008308;28;20179;-55
2023/10/25 07:14:58;;;;;;;1999.90;999.90;;;;;;;18.29;100.00;93702.22;5007964;28;20184;-56
2023/10/25 07:17:24;;;;;;;1999.90;999.90;;;;;;;18.29;100.00;93825.84;5007693;28;20217;-53
2023/10/25 07:19:50;;;;;;;1999.90;999.90;;;;;;;18.54;100.00;93866.53;5007529;28;20261;-55
2023/10/25 07:22:15;;;;;;;1999.90;999.90;;;;;;;19.06;100.00;93895.56;5007563;28;20179;-53
2023/10/25 07:24:40;;;;;;;1999.90;999.90;;;;;;;18.96;100.00;93966.19;5007592;28;20179;-53
2023/10/25 07:27:06;;;;;;;1999.90;999.90;;;;;;;19.15;100.00;93992.22;5007650;28;20250;-52
2023/10/25 07:29:31;;;;;;;1999.90;999.90;;;;;;;19.67;100.00;94026.09;5007489;28;20186;-53
2023/10/25 07:31:56;;;;;;;1999.90;999.90;;;;;;;19.92;100.00;94042.59;5007604;28;20175;-55
2023/10/25 07:34:22;;;;;;;1999.90;999.90;;;;;;;19.74;100.00;94065.16;5007402;28;20237;-51
2023/10/25 07:36:47;;;;;;;1999.90;999.90;;;;;;;19.61;100.00;94067.59;5007459;28;20211;-52
2023/10/25 07:39:15;;;;;;;1999.90;999.90;;;;;;;18.99;100.00;94062.06;5007240;28;20215;-54
2023/10/25 07:41:41;;;;;;;1999.90;999.90;;;;;;;18.58;100.00;94046.81;5007011;28;20251;-51
2023/10/25 07:44:07;;;;;;;1999.90;999.90;;;;;;;18.59;100.00;94045.56;5007241;28;20175;-53
2023/10/25 07:46:32;;;;;;;1999.90;999.90;;;;;;;18.66;100.00;94053.44;5007459;28;20222;-52
2023/10/25 07:48:57;;;;;;;1999.90;999.90;;;;;;;18.88;100.00;94045.34;5007625;28;20175;-53
2023/10/25 07:51:23;;;;;;;1999.90;999.90;;;;;;;18.71;100.00;94052.72;5007541;28;20263;-53
2023/10/25 07:53:48;;;;;;;1999.90;999.90;;;;;;;19.05;100.00;94071.91;5007231;28;20179;-53
2023/10/25 07:56:13;;;;;;;1999.90;999.90;;;;;;;19.34;100.00;94084.78;5007554;28;20172;-54
2023/10/25 07:58:39;;;;;;;1999.90;999.90;;;;;;;19.29;100.00;94082.72;5007164;28;20209;-55
2023/10/25 08:01:04;;;;;;;1999.90;999.90;;;;;;;19.74;100.00;94103.94;5007345;28;20179;-51
2023/10/25 08:03:30;;;;;;;1999.90;999.90;;;;;;;19.61;100.00;94100.09;5007934;28;20182;-51
2023/10/25 08:05:55;;;;;;;1999.90;999.90;;;;;;;19.72;100.00;94100.16;5007660;28;20190;-54
2023/10/25 08:08:21;;;;;;;1999.90;999.90;;;;;;;19.97;100.00;94121.50;5007931;28;20183;-55
2023/10/25 08:10:46;;;;;;;1999.90;999.90;;;;;;;20.04;100.00;94116.25;5007170;28;20183;-52
2023/10/25 08:13:12;;;;;;;1999.90;999.90;;;;;;;19.86;100.00;94110.34;5010184;28;20198;-52
2023/10/25 08:15:37;;;;;;;1999.90;999.90;;;;;;;20.33;100.00;94107.63;5011293;28;20171;-52
2023/10/25 08:18:03;;;;;;;1999.90;999.90;;;;;;;19.94;100.00;94097.53;5010890;28;20195;-50
2023/10/25 08:20:28;;;;;;;1999.90;999.90;;;;;;;19.91;100.00;94113.13;5010899;28;20191;-52
2023/10/25 08:22:54;;;;;;;1999.90;999.90;;;;;;;19.75;100.00;94111.03;5011320;28;20175;-52
2023/10/25 08:25:21;;;;;;;1999.90;999.90;;;;;;;19.01;100.00;94101.06;5010838;28;20183;-51
2023/10/25 08:27:46;;;;;;;1999.90;999.90;;;;;;;19.79;100.00;94083.84;5010722;28;20195;-54
2023/10/25 08:30:12;;;;;;;1999.90;999.90;;;;;;;20.27;100.00;94101.28;5010814;28;20210;-53
2023/10/25 08:32:37;;;;;;;1999.90;999.90;;;;;;;20.62;100.00;94107.25;5010446;28;20179;-53
2023/10/25 08:35:03;;;;;;;1999.90;999.90;;;;;;;21.14;100.00;94111.19;5011031;28;20183;-50
2023/10/25 08:37:29;;;;;;;1999.90;999.90;;;;;;;20.78;100.00;94119.63;5010194;28;20199;-49
2023/10/25 08:39:54;;;;;;;1999.90;999.90;;;;;;;20.76;100.00;94109.03;5010440;28;20306;-49
2023/10/25 08:42:20;;;;;;;1999.90;999.90;;;;;;;21.13;100.00;94109.63;5011141;28;20172;-54
2023/10/25 08:44:46;;;;;;;1999.90;999.90;;;;;;;21.35;100.00;94120.03;5010360;28;20179;-52
2023/10/25 08:47:11;;;;;;;1999.90;999.90;;;;;;;21.04;100.00;94106.34;5010230;28;20171;-52
2023/10/25 08:49:38;;;;;;;1999.90;999.90;;;;;;;21.18;100.00;94106.13;5010864;28;20222;-50
2023/10/25 08:52:03;;;;;;;1999.90;999.90;;;;;;;21.33;100.00;94103.09;5010744;28;20205;-53
2023/10/25 08:54:29;;;;;;;1999.90;999.90;;;;;;;21.49;100.00;94097.56;5010509;28;20199;-51
2023/10/25 08:56:55;;;;;;;1999.90;999.90;;;;;;;21.26;100.00;94096.03;5009754;28;20246;-52
2023/10/25 08:59:20;;;;;;;1999.90;999.90;;;;;;;20.70;100.00;94105.50;5010661;28;20199;-51
2023/10/25 09:01:46;;;;;;;1999.90;999.90;;;;;;;21.19;100.00;94098.53;5010843;28;20222;-49
2023/10/25 09:04:11;;;;;;;1999.90;999.90;;;;;;;21.68;100.00;94104.09;5010137;28;20167;-53
2023/10/25 09:06:37;;;;;;;1999.90;999.90;;;;;;;21.37;100.00;94098.06;5010277;28;20203;-54
2023/10/25 09:09:05;;;;;;;1999.90;999.90;;;;;;;21.14;100.00;94093.75;5010812;28;20178;-53
2023/10/25 09:11:57;;;;;;;1999.90;999.90;;;;;;;21.80;100.00;94088.22;5009772;28;20178;-57
2023/10/25 09:14:22;;;;;;;1999.90;999.90;;;;;;;21.84;100.00;94078.38;5006024;28;20191;-55
2023/10/25 09:16:48;;;;;;;1999.90;999.90;;;;;;;21.27;100.00;94086.44;5010194;28;20176;-55
2023/10/25 09:19:20;;;;;;;1999.90;999.90;;;;;;;21.53;100.00;94083.41;5010051;28;20229;-60
2023/10/25 09:21:46;;;;;;;1999.90;999.90;;;;;;;21.49;100.00;94086.44;5010300;28;20183;-48
2023/10/25 09:24:11;;;;;;;1999.90;999.90;;;;;;;20.97;100.00;94084.63;5009545;28;20171;-46
2023/10/25 09:26:41;;;;;;;1999.90;999.90;;;;;;;20.67;100.00;94073.19;5009781;28;20179;-47
2023/10/25 09:29:09;;;;;;;1999.90;999.90;;;;;;;20.55;100.00;94068.09;5010080;28;20198;-48
2023/10/25 09:31:36;;;;;;;1999.90;999.90;;;;;;;19.92;100.00;94075.84;5010283;28;20175;-55
2023/10/25 09:34:08;;;;;;;1999.90;999.90;;;;;;;19.88;100.00;94064.25;5010043;28;20202;-52
2023/10/25 09:36:34;;;;;;;1999.90;999.90;;;;;;;20.28;100.00;94052.88;5010220;28;20194;-50
2023/10/25 09:38:59;;;;;;;1999.90;999.90;;;;;;;20.33;100.00;94054.94;5009305;28;20232;-52
2023/10/25 09:41:26;;;;;;;1999.90;999.90;;;;;;;20.39;100.00;94057.72;5009672;28;20251;-52
2023/10/25 09:43:56;;;;;;;1999.90;999.90;;;;;;;20.60;100.00;94050.72;5009812;28;20180;-51
2023/10/25 09:46:23;;;;;;;1999.90;999.90;;;;;;;20.95;100.00;94060.16;5009665;28;20214;-49
2023/10/25 09:48:55;;;;;;;1999.90;999.90;;;;;;;20.66;100.00;94054.25;5009598;28;20179;-51
2023/10/25 09:51:39;;;;;;;1999.90;999.90;;;;;;;20.43;100.00;94053.44;5009163;28;20175;-50
2023/10/25 09:54:12;;;;;;;1999.90;999.90;;;;;;;20.53;100.00;94040.84;5009121;28;20184;-54
2023/10/25 09:56:38;;;;;;;1999.90;999.90;;;;;;;21.10;100.00;94048.81;5009020;28;20238;-52
2023/10/25 09:59:10;;;;;;;1999.90;999.90;;;;;;;21.09;100.00;94052.84;5009398;28;20207;-51
2023/10/25 10:01:38;;;;;;;1999.90;999.90;;;;;;;21.85;100.00;94035.38;5009194;28;20191;-50
2023/10/25 10:04:24;;;;;;;1999.90;999.90;;;;;;;22.28;100.00;94050.44;5008889;28;20229;-54
2023/10/25 10:06:49;;;;;;;1999.90;999.90;;;;;;;21.84;100.00;94031.09;5009432;28;20170;-53
2023/10/25 10:09:27;;;;;;;1999.90;999.90;;;;;;;21.70;100.00;94026.53;5009151;28;20215;-52
2023/10/25 10:12:05;;;;;;;1999.90;999.90;;;;;;;21.32;100.00;94030.13;5009422;28;20173;-54
2023/10/25 10:14:33;;;;;;;1999.90;999.90;;;;;;;21.01;100.00;94030.38;5009509;28;20199;-54
2023/10/25 10:17:18;;;;;;;1999.90;999.90;;;;;;;21.49;100.00;94033.66;5009133;28;20178;-52
2023/10/25 10:19:46;;;;;;;1999.90;999.90;;;;;;;21.85;100.00;94045.78;5008194;28;20221;-51
2023/10/25 10:22:13;;;;;;;1999.90;999.90;;;;;;;22.22;100.00;94049.69;5009129;28;20238;-48
2023/10/25 10:24:53;;;;;;;1999.90;999.90;;;;;;;22.58;100.00;94047.06;5008499;28;20179;-47
2023/10/25 10:27:23;;;;;;;1999.90;999.90;;;;;;;21.71;100.00;94046.78;5009001;28;20175;-51
2023/10/25 10:29:49;;;;;;;1999.90;999.90;;;;;;;21.65;100.00;94032.88;5008425;28;20213;-52
2023/10/25 10:32:15;;;;;;;1999.90;999.90;;;;;;;21.89;100.00;94019.19;5008909;28;20175;-50
2023/10/25 10:34:47;;;;;;;1999.90;999.90;;;;;;;21.94;100.00;94010.09;5007920;28;20198;-51
2023/10/25 10:37:17;;;;;;;1999.90;999.90;;;;;;;22.24;100.00;94010.22;5009079;28;20246;-51
2023/10/25 10:40:10;;;;;;;1999.90;999.90;;;;;;;22.69;100.00;93994.84;5007944;28;20258;-52
2023/10/25 10:42:36;;;;;;;1999.90;999.90;;;;;;;22.37;100.00;93996.53;5008524;28;20210;-50
2023/10/25 10:45:05;;;;;;;1999.90;999.90;;;;;;;22.57;100.00;93993.41;5008449;28;20176;-50
2023/10/25 10:47:39;;;;;;;1999.90;999.90;;;;;;;22.60;100.00;93981.25;5008540;28;20175;-52